sensor_id;sensor_type;location;lat;lon;timestamp;P1;durP1;ratioP1;P2;durP2;ratioP2
77042;SDS011;65975;53.936;27.540;2022-12-24T00:01:07;9.90;;;7.05;;
77042;SDS011;65975;53.936;27.540;2022-12-24T00:03:33;8.45;;;6.35;;
77042;SDS011;65975;53.936;27.540;2022-12-24T00:06:07;8.23;;;6.18;;
77042;SDS011;65975;53.936;27.540;2022-12-24T00:08:35;9.40;;;6.85;;
77042;SDS011;65975;53.936;27.540;2022-12-24T00:11:00;9.25;;;6.68;;
77042;SDS011;65975;53.936;27.540;2022-12-24T00:13:26;11.98;;;7.55;;
77042;SDS011;65975;53.936;27.540;2022-12-24T00:15:52;12.27;;;8.30;;
77042;SDS011;65975;53.936;27.540;2022-12-24T00:18:17;14.20;;;8.02;;
77042;SDS011;65975;53.936;27.540;2022-12-24T00:20:46;11.75;;;7.20;;
77042;SDS011;65975;53.936;27.540;2022-12-24T00:23:13;11.10;;;7.50;;
77042;SDS011;65975;53.936;27.540;2022-12-24T00:25:39;15.32;;;8.50;;
77042;SDS011;65975;53.936;27.540;2022-12-24T00:28:04;10.75;;;7.30;;
77042;SDS011;65975;53.936;27.540;2022-12-24T00:30:30;14.13;;;8.10;;
77042;SDS011;65975;53.936;27.540;2022-12-24T00:32:55;14.57;;;8.10;;
77042;SDS011;65975;53.936;27.540;2022-12-24T00:35:21;13.77;;;8.68;;
77042;SDS011;65975;53.936;27.540;2022-12-24T00:37:47;15.15;;;8.98;;
77042;SDS011;65975;53.936;27.540;2022-12-24T00:40:13;13.45;;;8.10;;
77042;SDS011;65975;53.936;27.540;2022-12-24T00:42:39;11.80;;;7.70;;
77042;SDS011;65975;53.936;27.540;2022-12-24T00:45:04;12.63;;;8.00;;
77042;SDS011;65975;53.936;27.540;2022-12-24T00:47:30;14.63;;;8.65;;
77042;SDS011;65975;53.936;27.540;2022-12-24T00:49:55;15.15;;;7.50;;
77042;SDS011;65975;53.936;27.540;2022-12-24T00:52:21;14.52;;;7.85;;
77042;SDS011;65975;53.936;27.540;2022-12-24T00:54:46;14.35;;;7.75;;
77042;SDS011;65975;53.936;27.540;2022-12-24T00:57:12;12.00;;;7.28;;
77042;SDS011;65975;53.936;27.540;2022-12-24T00:59:37;12.98;;;7.00;;
77042;SDS011;65975;53.936;27.540;2022-12-24T01:02:03;13.43;;;7.68;;
77042;SDS011;65975;53.936;27.540;2022-12-24T01:04:28;12.73;;;7.68;;
77042;SDS011;65975;53.936;27.540;2022-12-24T01:07:12;12.85;;;7.68;;
77042;SDS011;65975;53.936;27.540;2022-12-24T01:09:38;12.88;;;7.78;;
77042;SDS011;65975;53.936;27.540;2022-12-24T01:12:04;14.85;;;7.68;;
77042;SDS011;65975;53.936;27.540;2022-12-24T01:14:29;13.70;;;7.50;;
77042;SDS011;65975;53.936;27.540;2022-12-24T01:16:55;14.85;;;8.77;;
77042;SDS011;65975;53.936;27.540;2022-12-24T01:19:20;15.55;;;8.20;;
77042;SDS011;65975;53.936;27.540;2022-12-24T01:21:45;15.85;;;8.63;;
77042;SDS011;65975;53.936;27.540;2022-12-24T01:24:14;12.93;;;7.45;;
77042;SDS011;65975;53.936;27.540;2022-12-24T01:26:40;11.98;;;6.53;;
77042;SDS011;65975;53.936;27.540;2022-12-24T01:29:06;11.65;;;6.63;;
77042;SDS011;65975;53.936;27.540;2022-12-24T01:31:32;13.18;;;7.85;;
77042;SDS011;65975;53.936;27.540;2022-12-24T01:33:57;12.10;;;7.82;;
77042;SDS011;65975;53.936;27.540;2022-12-24T01:36:23;12.50;;;7.80;;
77042;SDS011;65975;53.936;27.540;2022-12-24T01:38:48;11.65;;;7.20;;
77042;SDS011;65975;53.936;27.540;2022-12-24T01:41:15;12.50;;;7.25;;
77042;SDS011;65975;53.936;27.540;2022-12-24T01:44:22;15.85;;;8.70;;
77042;SDS011;65975;53.936;27.540;2022-12-24T01:46:51;15.77;;;8.35;;
77042;SDS011;65975;53.936;27.540;2022-12-24T01:49:20;12.75;;;7.97;;
77042;SDS011;65975;53.936;27.540;2022-12-24T01:52:20;14.43;;;7.95;;
77042;SDS011;65975;53.936;27.540;2022-12-24T01:54:47;15.77;;;8.57;;
77042;SDS011;65975;53.936;27.540;2022-12-24T01:57:27;13.85;;;8.73;;
77042;SDS011;65975;53.936;27.540;2022-12-24T02:00:06;12.27;;;7.40;;
77042;SDS011;65975;53.936;27.540;2022-12-24T02:02:36;11.30;;;6.80;;
77042;SDS011;65975;53.936;27.540;2022-12-24T02:05:15;12.98;;;8.00;;
77042;SDS011;65975;53.936;27.540;2022-12-24T02:07:46;11.85;;;8.00;;
77042;SDS011;65975;53.936;27.540;2022-12-24T02:10:13;15.80;;;8.50;;
77042;SDS011;65975;53.936;27.540;2022-12-24T02:12:41;14.85;;;8.02;;
77042;SDS011;65975;53.936;27.540;2022-12-24T02:15:10;16.45;;;8.82;;
77042;SDS011;65975;53.936;27.540;2022-12-24T02:17:41;15.10;;;7.90;;
77042;SDS011;65975;53.936;27.540;2022-12-24T02:20:20;16.90;;;9.82;;
77042;SDS011;65975;53.936;27.540;2022-12-24T02:23:26;14.48;;;8.10;;
77042;SDS011;65975;53.936;27.540;2022-12-24T02:31:57;22.75;;;12.52;;
77042;SDS011;65975;53.936;27.540;2022-12-24T02:36:39;19.02;;;12.52;;
77042;SDS011;65975;53.936;27.540;2022-12-24T02:39:12;21.75;;;11.75;;
77042;SDS011;65975;53.936;27.540;2022-12-24T02:41:44;20.17;;;13.57;;
77042;SDS011;65975;53.936;27.540;2022-12-24T02:44:44;22.25;;;12.40;;
77042;SDS011;65975;53.936;27.540;2022-12-24T02:47:16;25.45;;;12.70;;
77042;SDS011;65975;53.936;27.540;2022-12-24T02:49:46;23.60;;;11.88;;
77042;SDS011;65975;53.936;27.540;2022-12-24T02:55:02;17.67;;;11.85;;
77042;SDS011;65975;53.936;27.540;2022-12-24T03:00:18;22.85;;;11.00;;
77042;SDS011;65975;53.936;27.540;2022-12-24T03:05:49;15.80;;;9.38;;
77042;SDS011;65975;53.936;27.540;2022-12-24T03:11:01;22.15;;;9.80;;
77042;SDS011;65975;53.936;27.540;2022-12-24T03:13:32;15.60;;;9.07;;
77042;SDS011;65975;53.936;27.540;2022-12-24T03:15:58;16.48;;;9.50;;
77042;SDS011;65975;53.936;27.540;2022-12-24T03:18:25;19.63;;;9.65;;
77042;SDS011;65975;53.936;27.540;2022-12-24T03:23:52;14.48;;;8.95;;
77042;SDS011;65975;53.936;27.540;2022-12-24T03:26:18;19.63;;;11.25;;
77042;SDS011;65975;53.936;27.540;2022-12-24T03:28:45;15.35;;;8.73;;
77042;SDS011;65975;53.936;27.540;2022-12-24T03:31:12;16.77;;;8.85;;
77042;SDS011;65975;53.936;27.540;2022-12-24T03:33:39;21.85;;;9.60;;
77042;SDS011;65975;53.936;27.540;2022-12-24T03:36:05;23.05;;;10.50;;
77042;SDS011;65975;53.936;27.540;2022-12-24T03:38:31;20.48;;;9.73;;
77042;SDS011;65975;53.936;27.540;2022-12-24T03:40:57;18.55;;;9.23;;
77042;SDS011;65975;53.936;27.540;2022-12-24T03:43:22;16.80;;;10.15;;
77042;SDS011;65975;53.936;27.540;2022-12-24T03:45:49;23.10;;;11.15;;
77042;SDS011;65975;53.936;27.540;2022-12-24T03:48:14;18.55;;;9.18;;
77042;SDS011;65975;53.936;27.540;2022-12-24T03:50:41;21.52;;;9.98;;
77042;SDS011;65975;53.936;27.540;2022-12-24T03:53:06;19.58;;;9.75;;
77042;SDS011;65975;53.936;27.540;2022-12-24T03:55:32;21.27;;;11.60;;
77042;SDS011;65975;53.936;27.540;2022-12-24T03:57:57;18.25;;;9.23;;
77042;SDS011;65975;53.936;27.540;2022-12-24T04:00:23;21.92;;;9.50;;
77042;SDS011;65975;53.936;27.540;2022-12-24T04:02:48;16.38;;;10.13;;
77042;SDS011;65975;53.936;27.540;2022-12-24T04:05:15;26.02;;;11.05;;
77042;SDS011;65975;53.936;27.540;2022-12-24T04:07:42;25.58;;;11.00;;
77042;SDS011;65975;53.936;27.540;2022-12-24T04:10:08;26.10;;;12.13;;
77042;SDS011;65975;53.936;27.540;2022-12-24T04:12:35;15.65;;;8.88;;
77042;SDS011;65975;53.936;27.540;2022-12-24T04:15:01;27.98;;;11.25;;
77042;SDS011;65975;53.936;27.540;2022-12-24T04:17:27;28.33;;;11.60;;
77042;SDS011;65975;53.936;27.540;2022-12-24T04:19:52;20.95;;;10.50;;
77042;SDS011;65975;53.936;27.540;2022-12-24T04:22:18;25.05;;;11.13;;
77042;SDS011;65975;53.936;27.540;2022-12-24T04:24:43;22.38;;;10.25;;
77042;SDS011;65975;53.936;27.540;2022-12-24T04:27:09;30.80;;;12.35;;
77042;SDS011;65975;53.936;27.540;2022-12-24T04:29:34;25.13;;;10.57;;
77042;SDS011;65975;53.936;27.540;2022-12-24T04:32:00;21.70;;;10.02;;
77042;SDS011;65975;53.936;27.540;2022-12-24T04:34:25;18.02;;;8.65;;
77042;SDS011;65975;53.936;27.540;2022-12-24T04:36:51;15.23;;;8.35;;
77042;SDS011;65975;53.936;27.540;2022-12-24T04:39:17;25.17;;;10.50;;
77042;SDS011;65975;53.936;27.540;2022-12-24T04:41:42;26.33;;;11.77;;
77042;SDS011;65975;53.936;27.540;2022-12-24T04:44:08;20.13;;;9.70;;
77042;SDS011;65975;53.936;27.540;2022-12-24T04:46:34;21.10;;;9.45;;
77042;SDS011;65975;53.936;27.540;2022-12-24T04:48:59;18.42;;;10.15;;
77042;SDS011;65975;53.936;27.540;2022-12-24T04:51:25;20.48;;;9.40;;
77042;SDS011;65975;53.936;27.540;2022-12-24T04:53:53;17.80;;;10.23;;
77042;SDS011;65975;53.936;27.540;2022-12-24T04:56:20;12.18;;;8.10;;
77042;SDS011;65975;53.936;27.540;2022-12-24T04:58:50;22.13;;;10.77;;
77042;SDS011;65975;53.936;27.540;2022-12-24T05:01:24;15.95;;;8.63;;
77042;SDS011;65975;53.936;27.540;2022-12-24T05:03:51;19.58;;;11.15;;
77042;SDS011;65975;53.936;27.540;2022-12-24T05:06:18;19.77;;;9.75;;
77042;SDS011;65975;53.936;27.540;2022-12-24T05:08:46;20.27;;;11.07;;
77042;SDS011;65975;53.936;27.540;2022-12-24T05:11:12;18.33;;;10.15;;
77042;SDS011;65975;53.936;27.540;2022-12-24T05:13:39;16.40;;;10.18;;
77042;SDS011;65975;53.936;27.540;2022-12-24T05:16:06;22.75;;;11.35;;
77042;SDS011;65975;53.936;27.540;2022-12-24T05:18:32;15.98;;;9.25;;
77042;SDS011;65975;53.936;27.540;2022-12-24T05:20:57;16.33;;;8.70;;
77042;SDS011;65975;53.936;27.540;2022-12-24T05:23:23;18.77;;;11.20;;
77042;SDS011;65975;53.936;27.540;2022-12-24T05:26:12;16.00;;;8.55;;
77042;SDS011;65975;53.936;27.540;2022-12-24T05:28:46;20.73;;;12.43;;
77042;SDS011;65975;53.936;27.540;2022-12-24T05:31:12;19.98;;;10.05;;
77042;SDS011;65975;53.936;27.540;2022-12-24T05:33:37;23.27;;;10.88;;
77042;SDS011;65975;53.936;27.540;2022-12-24T05:36:03;14.60;;;8.30;;
77042;SDS011;65975;53.936;27.540;2022-12-24T05:38:29;20.17;;;11.02;;
77042;SDS011;65975;53.936;27.540;2022-12-24T05:40:54;22.50;;;10.77;;
77042;SDS011;65975;53.936;27.540;2022-12-24T05:43:19;18.75;;;9.95;;
77042;SDS011;65975;53.936;27.540;2022-12-24T05:45:45;23.77;;;12.05;;
77042;SDS011;65975;53.936;27.540;2022-12-24T05:48:10;22.90;;;10.93;;
77042;SDS011;65975;53.936;27.540;2022-12-24T05:50:37;24.42;;;12.00;;
77042;SDS011;65975;53.936;27.540;2022-12-24T05:53:05;23.40;;;11.25;;
77042;SDS011;65975;53.936;27.540;2022-12-24T05:55:31;16.33;;;9.07;;
77042;SDS011;65975;53.936;27.540;2022-12-24T05:57:57;23.38;;;10.55;;
77042;SDS011;65975;53.936;27.540;2022-12-24T06:00:23;23.23;;;11.88;;
77042;SDS011;65975;53.936;27.540;2022-12-24T06:02:49;17.98;;;11.15;;
77042;SDS011;65975;53.936;27.540;2022-12-24T06:05:15;16.88;;;9.85;;
77042;SDS011;65975;53.936;27.540;2022-12-24T06:07:40;13.40;;;8.48;;
77042;SDS011;65975;53.936;27.540;2022-12-24T06:10:06;12.82;;;9.55;;
77042;SDS011;65975;53.936;27.540;2022-12-24T06:12:32;19.50;;;11.85;;
77042;SDS011;65975;53.936;27.540;2022-12-24T06:14:58;23.52;;;11.70;;
77042;SDS011;65975;53.936;27.540;2022-12-24T06:17:23;20.40;;;10.90;;
77042;SDS011;65975;53.936;27.540;2022-12-24T06:19:49;17.92;;;10.88;;
77042;SDS011;65975;53.936;27.540;2022-12-24T06:22:14;18.50;;;10.63;;
77042;SDS011;65975;53.936;27.540;2022-12-24T06:24:40;18.85;;;11.90;;
77042;SDS011;65975;53.936;27.540;2022-12-24T06:27:05;21.98;;;11.88;;
77042;SDS011;65975;53.936;27.540;2022-12-24T06:29:31;20.73;;;11.35;;
77042;SDS011;65975;53.936;27.540;2022-12-24T06:31:56;23.15;;;11.73;;
77042;SDS011;65975;53.936;27.540;2022-12-24T06:34:22;20.75;;;10.90;;
77042;SDS011;65975;53.936;27.540;2022-12-24T06:36:47;28.77;;;13.50;;
77042;SDS011;65975;53.936;27.540;2022-12-24T06:39:13;23.67;;;10.80;;
77042;SDS011;65975;53.936;27.540;2022-12-24T06:41:38;17.63;;;9.98;;
77042;SDS011;65975;53.936;27.540;2022-12-24T06:44:04;18.35;;;9.60;;
77042;SDS011;65975;53.936;27.540;2022-12-24T06:46:29;21.08;;;11.88;;
77042;SDS011;65975;53.936;27.540;2022-12-24T06:48:55;24.95;;;11.75;;
77042;SDS011;65975;53.936;27.540;2022-12-24T06:51:20;22.45;;;11.75;;
77042;SDS011;65975;53.936;27.540;2022-12-24T06:53:49;20.45;;;10.80;;
77042;SDS011;65975;53.936;27.540;2022-12-24T06:56:15;19.55;;;10.52;;
77042;SDS011;65975;53.936;27.540;2022-12-24T06:58:41;16.92;;;9.20;;
77042;SDS011;65975;53.936;27.540;2022-12-24T07:01:09;22.85;;;11.38;;
77042;SDS011;65975;53.936;27.540;2022-12-24T07:03:36;26.48;;;12.13;;
77042;SDS011;65975;53.936;27.540;2022-12-24T07:06:02;38.08;;;18.10;;
77042;SDS011;65975;53.936;27.540;2022-12-24T07:08:27;29.13;;;15.57;;
77042;SDS011;65975;53.936;27.540;2022-12-24T07:10:53;33.83;;;18.23;;
77042;SDS011;65975;53.936;27.540;2022-12-24T07:13:19;22.42;;;15.10;;
77042;SDS011;65975;53.936;27.540;2022-12-24T07:15:44;23.48;;;13.50;;
77042;SDS011;65975;53.936;27.540;2022-12-24T07:18:10;25.23;;;13.93;;
77042;SDS011;65975;53.936;27.540;2022-12-24T07:20:36;22.38;;;12.90;;
77042;SDS011;65975;53.936;27.540;2022-12-24T07:23:01;20.70;;;12.75;;
77042;SDS011;65975;53.936;27.540;2022-12-24T07:25:27;16.67;;;11.43;;
77042;SDS011;65975;53.936;27.540;2022-12-24T07:27:52;17.33;;;11.43;;
77042;SDS011;65975;53.936;27.540;2022-12-24T07:30:18;16.75;;;10.38;;
77042;SDS011;65975;53.936;27.540;2022-12-24T07:32:43;17.33;;;9.73;;
77042;SDS011;65975;53.936;27.540;2022-12-24T07:35:09;16.02;;;10.15;;
77042;SDS011;65975;53.936;27.540;2022-12-24T07:37:35;18.73;;;11.20;;
77042;SDS011;65975;53.936;27.540;2022-12-24T07:40:00;17.60;;;12.50;;
77042;SDS011;65975;53.936;27.540;2022-12-24T07:42:26;14.88;;;10.55;;
77042;SDS011;65975;53.936;27.540;2022-12-24T07:44:52;14.55;;;9.98;;
77042;SDS011;65975;53.936;27.540;2022-12-24T07:47:17;17.88;;;11.27;;
77042;SDS011;65975;53.936;27.540;2022-12-24T07:49:43;18.58;;;12.18;;
77042;SDS011;65975;53.936;27.540;2022-12-24T07:52:08;17.35;;;10.13;;
77042;SDS011;65975;53.936;27.540;2022-12-24T07:54:34;19.33;;;10.65;;
77042;SDS011;65975;53.936;27.540;2022-12-24T07:56:59;17.73;;;10.23;;
77042;SDS011;65975;53.936;27.540;2022-12-24T07:59:25;22.90;;;13.43;;
77042;SDS011;65975;53.936;27.540;2022-12-24T08:01:51;17.98;;;11.60;;
77042;SDS011;65975;53.936;27.540;2022-12-24T08:04:16;21.85;;;12.80;;
77042;SDS011;65975;53.936;27.540;2022-12-24T08:06:42;18.33;;;10.95;;
77042;SDS011;65975;53.936;27.540;2022-12-24T08:09:07;17.80;;;9.75;;
77042;SDS011;65975;53.936;27.540;2022-12-24T08:11:33;18.98;;;12.10;;
77042;SDS011;65975;53.936;27.540;2022-12-24T08:13:58;36.63;;;19.90;;
77042;SDS011;65975;53.936;27.540;2022-12-24T08:16:24;21.80;;;12.48;;
77042;SDS011;65975;53.936;27.540;2022-12-24T08:18:49;21.27;;;12.57;;
77042;SDS011;65975;53.936;27.540;2022-12-24T08:21:15;18.38;;;10.68;;
77042;SDS011;65975;53.936;27.540;2022-12-24T08:23:40;19.25;;;11.55;;
77042;SDS011;65975;53.936;27.540;2022-12-24T08:26:06;21.02;;;12.18;;
77042;SDS011;65975;53.936;27.540;2022-12-24T08:28:32;23.00;;;12.48;;
77042;SDS011;65975;53.936;27.540;2022-12-24T08:30:58;19.00;;;10.85;;
77042;SDS011;65975;53.936;27.540;2022-12-24T08:33:24;16.90;;;10.48;;
77042;SDS011;65975;53.936;27.540;2022-12-24T08:35:52;22.45;;;11.32;;
77042;SDS011;65975;53.936;27.540;2022-12-24T08:38:18;15.50;;;10.68;;
77042;SDS011;65975;53.936;27.540;2022-12-24T08:40:44;15.05;;;9.48;;
77042;SDS011;65975;53.936;27.540;2022-12-24T08:43:13;19.60;;;11.70;;
77042;SDS011;65975;53.936;27.540;2022-12-24T08:45:39;20.73;;;12.32;;
77042;SDS011;65975;53.936;27.540;2022-12-24T08:48:05;17.17;;;10.85;;
77042;SDS011;65975;53.936;27.540;2022-12-24T08:50:31;17.92;;;10.85;;
77042;SDS011;65975;53.936;27.540;2022-12-24T08:52:57;19.23;;;11.85;;
77042;SDS011;65975;53.936;27.540;2022-12-24T08:55:24;19.50;;;11.00;;
77042;SDS011;65975;53.936;27.540;2022-12-24T08:57:49;18.38;;;11.40;;
77042;SDS011;65975;53.936;27.540;2022-12-24T09:00:15;17.25;;;11.07;;
77042;SDS011;65975;53.936;27.540;2022-12-24T09:02:41;18.15;;;11.52;;
77042;SDS011;65975;53.936;27.540;2022-12-24T09:05:07;25.63;;;14.90;;
77042;SDS011;65975;53.936;27.540;2022-12-24T09:07:32;18.73;;;13.07;;
77042;SDS011;65975;53.936;27.540;2022-12-24T09:09:58;21.95;;;12.63;;
77042;SDS011;65975;53.936;27.540;2022-12-24T09:12:24;18.73;;;10.57;;
77042;SDS011;65975;53.936;27.540;2022-12-24T09:14:50;19.60;;;12.40;;
77042;SDS011;65975;53.936;27.540;2022-12-24T09:17:16;20.08;;;12.63;;
77042;SDS011;65975;53.936;27.540;2022-12-24T09:19:41;14.80;;;10.88;;
77042;SDS011;65975;53.936;27.540;2022-12-24T09:22:06;21.15;;;11.90;;
77042;SDS011;65975;53.936;27.540;2022-12-24T09:24:32;20.63;;;11.02;;
77042;SDS011;65975;53.936;27.540;2022-12-24T09:26:59;17.55;;;10.13;;
77042;SDS011;65975;53.936;27.540;2022-12-24T09:29:26;18.17;;;9.85;;
77042;SDS011;65975;53.936;27.540;2022-12-24T09:31:52;19.58;;;11.25;;
77042;SDS011;65975;53.936;27.540;2022-12-24T09:34:19;16.02;;;9.43;;
77042;SDS011;65975;53.936;27.540;2022-12-24T09:36:45;20.08;;;12.07;;
77042;SDS011;65975;53.936;27.540;2022-12-24T09:39:12;18.00;;;12.15;;
77042;SDS011;65975;53.936;27.540;2022-12-24T09:47:16;17.13;;;10.65;;
77042;SDS011;65975;53.936;27.540;2022-12-24T09:49:50;19.77;;;13.73;;
77042;SDS011;65975;53.936;27.540;2022-12-24T09:52:28;13.18;;;8.27;;
77042;SDS011;65975;53.936;27.540;2022-12-24T09:55:04;13.93;;;9.05;;
77042;SDS011;65975;53.936;27.540;2022-12-24T09:57:39;13.82;;;8.45;;
77042;SDS011;65975;53.936;27.540;2022-12-24T10:00:16;13.85;;;7.72;;
77042;SDS011;65975;53.936;27.540;2022-12-24T10:02:45;14.60;;;9.25;;
77042;SDS011;65975;53.936;27.540;2022-12-24T10:05:13;16.95;;;11.07;;
77042;SDS011;65975;53.936;27.540;2022-12-24T10:08:13;18.02;;;11.45;;
77042;SDS011;65975;53.936;27.540;2022-12-24T10:16:23;15.05;;;8.38;;
77042;SDS011;65975;53.936;27.540;2022-12-24T10:19:23;12.02;;;8.25;;
77042;SDS011;65975;53.936;27.540;2022-12-24T10:27:13;15.98;;;10.75;;
77042;SDS011;65975;53.936;27.540;2022-12-24T10:29:44;16.70;;;11.35;;
77042;SDS011;65975;53.936;27.540;2022-12-24T10:32:15;17.38;;;11.07;;
77042;SDS011;65975;53.936;27.540;2022-12-24T10:34:55;20.92;;;13.98;;
77042;SDS011;65975;53.936;27.540;2022-12-24T10:37:33;22.58;;;14.93;;
77042;SDS011;65975;53.936;27.540;2022-12-24T10:39:59;15.35;;;11.27;;
77042;SDS011;65975;53.936;27.540;2022-12-24T10:42:31;13.02;;;8.20;;
77042;SDS011;65975;53.936;27.540;2022-12-24T10:45:09;11.18;;;7.72;;
77042;SDS011;65975;53.936;27.540;2022-12-24T10:47:40;14.65;;;10.60;;
77042;SDS011;65975;53.936;27.540;2022-12-24T10:52:36;12.48;;;8.88;;
77042;SDS011;65975;53.936;27.540;2022-12-24T10:55:09;15.68;;;9.38;;
77042;SDS011;65975;53.936;27.540;2022-12-24T10:57:45;21.13;;;10.88;;
77042;SDS011;65975;53.936;27.540;2022-12-24T11:00:21;10.60;;;6.78;;
77042;SDS011;65975;53.936;27.540;2022-12-24T11:02:48;14.25;;;7.43;;
77042;SDS011;65975;53.936;27.540;2022-12-24T11:05:32;21.98;;;11.00;;
77042;SDS011;65975;53.936;27.540;2022-12-24T11:08:03;12.20;;;7.55;;
77042;SDS011;65975;53.936;27.540;2022-12-24T11:10:43;13.63;;;8.38;;
77042;SDS011;65975;53.936;27.540;2022-12-24T11:13:25;13.30;;;7.32;;
77042;SDS011;65975;53.936;27.540;2022-12-24T11:16:38;11.15;;;7.78;;
77042;SDS011;65975;53.936;27.540;2022-12-24T11:21:41;12.27;;;8.20;;
77042;SDS011;65975;53.936;27.540;2022-12-24T11:24:12;9.85;;;6.78;;
77042;SDS011;65975;53.936;27.540;2022-12-24T11:26:53;11.00;;;7.35;;
77042;SDS011;65975;53.936;27.540;2022-12-24T11:29:40;8.95;;;5.43;;
77042;SDS011;65975;53.936;27.540;2022-12-24T11:32:13;8.32;;;5.43;;
77042;SDS011;65975;53.936;27.540;2022-12-24T11:34:42;9.30;;;6.20;;
77042;SDS011;65975;53.936;27.540;2022-12-24T11:37:09;11.90;;;7.30;;
77042;SDS011;65975;53.936;27.540;2022-12-24T11:39:54;11.55;;;8.38;;
77042;SDS011;65975;53.936;27.540;2022-12-24T11:42:36;11.57;;;6.93;;
77042;SDS011;65975;53.936;27.540;2022-12-24T11:45:05;7.90;;;5.90;;
77042;SDS011;65975;53.936;27.540;2022-12-24T11:47:41;11.20;;;6.85;;
77042;SDS011;65975;53.936;27.540;2022-12-24T11:50:40;11.40;;;5.70;;
77042;SDS011;65975;53.936;27.540;2022-12-24T12:01:01;9.73;;;5.53;;
77042;SDS011;65975;53.936;27.540;2022-12-24T12:07:00;6.95;;;5.18;;
77042;SDS011;65975;53.936;27.540;2022-12-24T12:09:09;7.47;;;4.22;;
77042;SDS011;65975;53.936;27.540;2022-12-24T12:11:39;8.30;;;5.15;;
77042;SDS011;65975;53.936;27.540;2022-12-24T12:14:08;6.43;;;5.00;;
77042;SDS011;65975;53.936;27.540;2022-12-24T12:16:55;9.32;;;6.10;;
77042;SDS011;65975;53.936;27.540;2022-12-24T12:19:36;8.55;;;5.63;;
77042;SDS011;65975;53.936;27.540;2022-12-24T12:22:04;10.70;;;5.85;;
77042;SDS011;65975;53.936;27.540;2022-12-24T12:24:36;10.40;;;6.13;;
77042;SDS011;65975;53.936;27.540;2022-12-24T12:29:35;14.48;;;8.05;;
77042;SDS011;65975;53.936;27.540;2022-12-24T12:32:15;8.32;;;6.30;;
77042;SDS011;65975;53.936;27.540;2022-12-24T12:37:43;6.53;;;4.40;;
77042;SDS011;65975;53.936;27.540;2022-12-24T12:40:16;12.30;;;7.30;;
77042;SDS011;65975;53.936;27.540;2022-12-24T12:43:07;20.50;;;12.10;;
77042;SDS011;65975;53.936;27.540;2022-12-24T12:45:57;19.80;;;9.68;;
77042;SDS011;65975;53.936;27.540;2022-12-24T12:48:53;11.98;;;7.38;;
77042;SDS011;65975;53.936;27.540;2022-12-24T12:54:20;12.80;;;8.20;;
77042;SDS011;65975;53.936;27.540;2022-12-24T12:57:00;10.23;;;6.68;;
77042;SDS011;65975;53.936;27.540;2022-12-24T13:04:51;8.88;;;7.63;;
77042;SDS011;65975;53.936;27.540;2022-12-24T13:10:14;15.13;;;9.77;;
77042;SDS011;65975;53.936;27.540;2022-12-24T13:15:23;7.85;;;4.82;;
77042;SDS011;65975;53.936;27.540;2022-12-24T13:20:53;2.85;;;1.80;;
77042;SDS011;65975;53.936;27.540;2022-12-24T13:23:19;2.10;;;1.90;;
77042;SDS011;65975;53.936;27.540;2022-12-24T13:25:48;10.75;;;6.75;;
77042;SDS011;65975;53.936;27.540;2022-12-24T13:28:24;8.25;;;5.15;;
77042;SDS011;65975;53.936;27.540;2022-12-24T13:34:00;5.70;;;3.33;;
77042;SDS011;65975;53.936;27.540;2022-12-24T13:36:58;4.75;;;3.08;;
77042;SDS011;65975;53.936;27.540;2022-12-24T13:39:25;3.97;;;3.42;;
77042;SDS011;65975;53.936;27.540;2022-12-24T13:41:51;2.83;;;2.53;;
77042;SDS011;65975;53.936;27.540;2022-12-24T13:44:18;2.92;;;2.50;;
77042;SDS011;65975;53.936;27.540;2022-12-24T13:46:56;2.33;;;2.13;;
77042;SDS011;65975;53.936;27.540;2022-12-24T13:52:05;2.83;;;2.42;;
77042;SDS011;65975;53.936;27.540;2022-12-24T13:54:40;3.42;;;2.67;;
77042;SDS011;65975;53.936;27.540;2022-12-24T13:57:25;10.65;;;7.50;;
77042;SDS011;65975;53.936;27.540;2022-12-24T14:02:23;7.75;;;4.20;;
77042;SDS011;65975;53.936;27.540;2022-12-24T14:04:52;4.25;;;3.33;;
77042;SDS011;65975;53.936;27.540;2022-12-24T14:07:24;6.50;;;4.13;;
77042;SDS011;65975;53.936;27.540;2022-12-24T14:09:50;1.98;;;1.42;;
77042;SDS011;65975;53.936;27.540;2022-12-24T14:12:49;1.73;;;1.48;;
77042;SDS011;65975;53.936;27.540;2022-12-24T14:18:10;7.22;;;5.13;;
77042;SDS011;65975;53.936;27.540;2022-12-24T14:20:41;5.88;;;3.38;;
77042;SDS011;65975;53.936;27.540;2022-12-24T14:23:14;6.18;;;4.65;;
77042;SDS011;65975;53.936;27.540;2022-12-24T14:25:53;7.38;;;4.95;;
77042;SDS011;65975;53.936;27.540;2022-12-24T14:28:19;6.20;;;3.97;;
77042;SDS011;65975;53.936;27.540;2022-12-24T14:30:59;4.97;;;3.67;;
77042;SDS011;65975;53.936;27.540;2022-12-24T14:33:32;5.28;;;4.78;;
77042;SDS011;65975;53.936;27.540;2022-12-24T14:35:59;3.92;;;3.60;;
77042;SDS011;65975;53.936;27.540;2022-12-24T14:38:27;4.82;;;3.85;;
77042;SDS011;65975;53.936;27.540;2022-12-24T14:41:03;5.60;;;4.60;;
77042;SDS011;65975;53.936;27.540;2022-12-24T14:44:07;5.38;;;3.45;;
77042;SDS011;65975;53.936;27.540;2022-12-24T14:46:56;4.90;;;3.47;;
77042;SDS011;65975;53.936;27.540;2022-12-24T14:55:29;2.47;;;1.90;;
77042;SDS011;65975;53.936;27.540;2022-12-24T14:58:31;2.65;;;2.20;;
77042;SDS011;65975;53.936;27.540;2022-12-24T15:00:57;4.00;;;3.03;;
77042;SDS011;65975;53.936;27.540;2022-12-24T15:03:29;3.63;;;2.63;;
77042;SDS011;65975;53.936;27.540;2022-12-24T15:06:00;2.88;;;2.53;;
77042;SDS011;65975;53.936;27.540;2022-12-24T15:11:34;2.80;;;2.17;;
77042;SDS011;65975;53.936;27.540;2022-12-24T15:14:01;3.70;;;2.05;;
77042;SDS011;65975;53.936;27.540;2022-12-24T15:16:31;3.97;;;2.80;;
77042;SDS011;65975;53.936;27.540;2022-12-24T15:19:00;5.47;;;3.90;;
77042;SDS011;65975;53.936;27.540;2022-12-24T15:21:32;9.13;;;6.60;;
77042;SDS011;65975;53.936;27.540;2022-12-24T15:26:53;2.63;;;2.25;;
77042;SDS011;65975;53.936;27.540;2022-12-24T15:29:21;2.50;;;1.95;;
77042;SDS011;65975;53.936;27.540;2022-12-24T15:31:55;2.03;;;1.83;;
77042;SDS011;65975;53.936;27.540;2022-12-24T15:42:42;2.08;;;1.88;;
77042;SDS011;65975;53.936;27.540;2022-12-24T15:47:57;2.60;;;1.70;;
77042;SDS011;65975;53.936;27.540;2022-12-24T15:50:27;1.58;;;1.48;;
77042;SDS011;65975;53.936;27.540;2022-12-24T15:53:10;1.90;;;1.42;;
77042;SDS011;65975;53.936;27.540;2022-12-24T15:58:31;1.70;;;1.50;;
77042;SDS011;65975;53.936;27.540;2022-12-24T16:04:46;1.80;;;1.70;;
77042;SDS011;65975;53.936;27.540;2022-12-24T16:07:22;1.85;;;1.70;;
77042;SDS011;65975;53.936;27.540;2022-12-24T16:10:24;1.70;;;1.60;;
77042;SDS011;65975;53.936;27.540;2022-12-24T16:12:49;2.22;;;1.95;;
77042;SDS011;65975;53.936;27.540;2022-12-24T16:15:15;1.50;;;1.38;;
77042;SDS011;65975;53.936;27.540;2022-12-24T16:17:46;1.75;;;1.65;;
77042;SDS011;65975;53.936;27.540;2022-12-24T16:20:19;1.45;;;1.33;;
77042;SDS011;65975;53.936;27.540;2022-12-24T16:22:46;1.58;;;1.48;;
77042;SDS011;65975;53.936;27.540;2022-12-24T16:25:25;2.72;;;2.10;;
77042;SDS011;65975;53.936;27.540;2022-12-24T16:27:52;2.25;;;1.75;;
77042;SDS011;65975;53.936;27.540;2022-12-24T16:30:19;2.30;;;1.77;;
77042;SDS011;65975;53.936;27.540;2022-12-24T16:32:46;2.92;;;2.25;;